Aguilar, Colorado
Current Conditions -  °F | °C
As of 12:54 PM on Monday 26 Jan 2015 (Local Time) from KTAD Reporting Station
Clear Clear  
Wind Chill: 61°   Ceiling: Unl
Heat Index: 61°   Visibility: 10mi
Dew Point: 28°   Wind: 6mph
Humidity: 29%   Direction: 160°SSE
Pressure: 30.3"   Gusts: NA
Location:  37.4°N, 104.65°W
Report Text: KTAD 261954Z AUTO 16005KT 10SM CLR 16/M02 A3030 RMK AO2 SLP228 T01611022
Loading
Personal Weather Stations






























Interactive Weather Map New forecast layout! Learn more

10-Day Weather Forecast

Advertisements
Track Severe Weather on mobile